Terminal Aerodrome Forecast
Issued by NWS

Home | Current Version | Previous Version | Graphics & Text | Print | Product List | Glossary On
Versions: 1 2 3 4 5 6 7 8 9 10 11 12 13 14 15
500
FTUS43 KICT 280520
TAFHUT
TAF
KHUT 280520Z 2806/2906 14007KT P6SM SCT070 BKN150
     FM280900 VRB04KT 3SM BR SCT008
     FM281500 28008KT P6SM SCT040
     FM290300 14004KT P6SM SKC=

USA.gov is the U.S. government's official web portal to all federal, state and local government web resources and services.